Time;durP1;ratioP1;P1;durP2;ratioP2;P2;SDS_P1;SDS_P2;PMS_P1;PMS_P2;Temp;Humidity;BMP_temperature;BMP_pressure;BME280_temperature;BME280_humidity;BME280_pressure;Samples;Min_cycle;Max_cycle;Signal;HPM_P1;HPM_P2
2024/01/06 00:02:19;;;;;;;;;;;7.30;99.90;;;;;;6775901;88;20060;-81
2024/01/06 00:12:20;;;;;;;;;;;7.30;99.90;;;;;;6776030;88;20077;-81
2024/01/06 00:22:20;;;;;;;;;;;7.20;99.90;;;;;;6772528;88;20061;-81
2024/01/06 00:32:21;;;;;;;;;;;7.20;99.90;;;;;;6776425;88;20050;-83
2024/01/06 00:42:21;;;;;;;;;;;7.20;99.90;;;;;;6777783;88;20077;-81
2024/01/06 00:52:22;;;;;;;;;;;7.20;99.90;;;;;;6775047;88;20077;-81
2024/01/06 01:02:22;;;;;;;;;;;7.20;99.90;;;;;;6774917;88;20052;-81
2024/01/06 01:12:23;;;;;;;;;;;7.20;99.90;;;;;;6776731;88;20057;-81
2024/01/06 01:22:23;;;;;;;;;;;7.20;99.90;;;;;;6772065;88;20048;-81
2024/01/06 01:32:24;;;;;;;;;;;7.20;99.90;;;;;;6771187;88;20207;-81
2024/01/06 01:42:24;;;;;;;;;;;7.20;99.90;;;;;;6775473;87;20513;-80
2024/01/06 01:52:25;;;;;;;;;;;7.20;99.90;;;;;;6779304;87;20230;-80
2024/01/06 02:02:25;;;;;;;;;;;7.20;99.90;;;;;;6776431;87;20216;-80
2024/01/06 02:12:25;;;;;;;;;;;7.10;99.90;;;;;;6777143;87;20065;-82
2024/01/06 02:22:26;;;;;;;;;;;7.00;99.90;;;;;;6774160;87;20543;-79
2024/01/06 02:32:26;;;;;;;;;;;6.80;99.90;;;;;;6768083;87;20094;-80
2024/01/06 02:42:27;;;;;;;;;;;6.80;99.90;;;;;;6772446;87;20084;-79
2024/01/06 02:52:27;;;;;;;;;;;6.80;99.90;;;;;;6768217;87;20086;-79
2024/01/06 03:02:28;;;;;;;;;;;6.70;99.90;;;;;;6770911;87;20124;-80
2024/01/06 03:12:28;;;;;;;;;;;6.80;99.90;;;;;;6776705;87;20096;-79
2024/01/06 03:22:29;;;;;;;;;;;6.80;99.90;;;;;;6771914;87;20605;-80
2024/01/06 03:32:29;;;;;;;;;;;6.70;99.90;;;;;;6774682;87;20636;-79
2024/01/06 03:42:30;;;;;;;;;;;6.60;99.90;;;;;;6773264;87;20060;-80
2024/01/06 03:52:30;;;;;;;;;;;6.60;99.90;;;;;;6767933;87;20075;-78
2024/01/06 04:02:30;;;;;;;;;;;6.50;99.90;;;;;;6768437;87;20041;-78
2024/01/06 04:12:31;;;;;;;;;;;6.60;99.90;;;;;;6770873;87;20562;-78
2024/01/06 04:22:31;;;;;;;;;;;6.60;99.90;;;;;;6769571;87;20067;-79
2024/01/06 04:32:32;;;;;;;;;;;6.50;99.90;;;;;;6770384;87;20078;-79
2024/01/06 04:42:32;;;;;;;;;;;6.50;99.90;;;;;;6770218;87;20050;-79
2024/01/06 04:52:33;;;;;;;;;;;6.60;99.90;;;;;;6781298;87;20075;-79
2024/01/06 05:02:33;;;;;;;;;;;6.70;99.90;;;;;;6767791;87;20137;-79
2024/01/06 05:12:34;;;;;;;;;;;6.70;99.90;;;;;;6773323;87;20075;-78
2024/01/06 05:22:34;;;;;;;;;;;6.70;99.90;;;;;;6771828;87;20129;-80
2024/01/06 05:32:36;;;;;;;;;;;6.70;99.90;;;;;;6768487;87;20073;-78
2024/01/06 05:42:37;;;;;;;;;;;6.60;99.90;;;;;;6774998;87;20084;-78
2024/01/06 05:52:37;;;;;;;;;;;6.60;99.90;;;;;;6769802;87;20078;-78
2024/01/06 06:02:38;;;;;;;;;;;6.60;99.90;;;;;;6771083;87;20151;-80
2024/01/06 06:12:39;;;;;;;;;;;6.50;99.90;;;;;;6770958;87;20526;-80
2024/01/06 06:22:39;;;;;;;;;;;6.50;99.90;;;;;;6771517;87;20117;-79
2024/01/06 06:32:40;;;;;;;;;;;6.50;99.90;;;;;;6772057;87;20102;-79
2024/01/06 06:42:40;;;;;;;;;;;6.40;99.90;;;;;;6770097;87;20061;-79
2024/01/06 06:52:42;;;;;;;;;;;6.10;99.90;;;;;;6770227;87;20050;-79
2024/01/06 07:02:42;;;;;;;;;;;6.00;99.90;;;;;;6767999;87;20065;-80
2024/01/06 07:12:43;;;;;;;;;;;5.90;99.90;;;;;;6765666;87;20087;-78
2024/01/06 07:22:43;;;;;;;;;;;5.80;99.90;;;;;;6769532;87;20633;-79
2024/01/06 07:32:44;;;;;;;;;;;5.60;99.90;;;;;;6771532;87;20083;-79
2024/01/06 07:42:44;;;;;;;;;;;5.60;99.90;;;;;;6769245;87;20066;-79
2024/01/06 07:52:45;;;;;;;;;;;5.50;99.90;;;;;;6770487;87;20489;-79
2024/01/06 08:02:45;;;;;;;;;;;5.50;99.90;;;;;;6766456;87;20071;-81
2024/01/06 08:12:46;;;;;;;;;;;5.40;99.90;;;;;;6772376;87;20556;-79
2024/01/06 08:22:46;;;;;;;;;;;5.50;99.90;;;;;;6767369;87;20086;-79
2024/01/06 08:32:46;;;;;;;;;;;5.30;99.90;;;;;;6771021;87;20103;-80
2024/01/06 08:42:47;;;;;;;;;;;5.20;99.90;;;;;;6772279;87;20792;-79
2024/01/06 08:52:47;;;;;;;;;;;5.40;99.90;;;;;;6772819;87;20089;-78
2024/01/06 09:02:49;;;;;;;;;;;5.40;99.90;;;;;;6771247;87;20489;-81
2024/01/06 09:12:49;;;;;;;;;;;5.30;99.90;;;;;;6774958;87;20069;-80
2024/01/06 09:22:50;;;;;;;;;;;5.30;99.90;;;;;;6772471;87;20049;-79
2024/01/06 09:32:50;;;;;;;;;;;5.30;99.90;;;;;;6770358;87;20118;-79
2024/01/06 09:42:51;;;;;;;;;;;5.40;99.90;;;;;;6764188;87;20066;-79
2024/01/06 09:52:53;;;;;;;;;;;5.30;99.90;;;;;;6759093;87;20546;-79
2024/01/06 10:02:54;;;;;;;;;;;5.20;99.90;;;;;;6764268;87;20709;-78
2024/01/06 10:12:55;;;;;;;;;;;5.30;99.90;;;;;;6775769;87;20441;-79
2024/01/06 10:23:03;;;;;;;;;;;5.30;99.90;;;;;;6758183;87;20864;-78
2024/01/06 10:33:08;;;;;;;;;;;5.40;99.90;;;;;;6755989;87;20139;-78
2024/01/06 10:43:09;;;;;;;;;;;5.50;99.90;;;;;;6762568;87;20073;-78
2024/01/06 10:53:11;;;;;;;;;;;5.60;99.90;;;;;;6766270;87;20127;-78
2024/01/06 11:03:13;;;;;;;;;;;5.60;99.90;;;;;;6762848;87;20061;-78
2024/01/06 11:13:20;;;;;;;;;;;5.50;99.90;;;;;;6763148;87;20531;-78
2024/01/06 11:23:21;;;;;;;;;;;5.50;99.90;;;;;;6768907;87;20056;-80
2024/01/06 11:33:21;;;;;;;;;;;5.30;99.90;;;;;;6783792;87;20067;-80
2024/01/06 11:43:26;;;;;;;;;;;5.40;99.90;;;;;;6786878;87;20061;-79
2024/01/06 11:53:27;;;;;;;;;;;5.40;99.90;;;;;;6786923;87;20145;-79
2024/01/06 12:03:29;;;;;;;;;;;5.20;99.90;;;;;;6778314;87;20117;-78
2024/01/06 12:13:30;;;;;;;;;;;5.20;99.90;;;;;;6770468;87;20512;-78
2024/01/06 12:23:31;;;;;;;;;;;5.30;99.90;;;;;;6759187;87;20180;-79
2024/01/06 12:33:32;;;;;;;;;;;5.30;99.90;;;;;;6764895;87;20090;-78
2024/01/06 12:43:32;;;;;;;;;;;5.20;99.90;;;;;;6763868;87;20857;-78
2024/01/06 12:53:33;;;;;;;;;;;5.20;99.90;;;;;;6757595;87;20103;-78
2024/01/06 13:03:33;;;;;;;;;;;5.10;99.90;;;;;;6760213;87;20073;-78
2024/01/06 13:13:34;;;;;;;;;;;5.10;99.90;;;;;;6763866;87;20064;-77
2024/01/06 13:23:34;;;;;;;;;;;5.00;99.90;;;;;;6766026;87;20071;-78
2024/01/06 13:33:35;;;;;;;;;;;5.00;99.90;;;;;;6769236;87;20061;-79
2024/01/06 13:43:35;;;;;;;;;;;5.00;99.90;;;;;;6770983;87;20554;-78
2024/01/06 13:53:36;;;;;;;;;;;5.00;99.90;;;;;;6765014;87;20049;-78
2024/01/06 14:03:36;;;;;;;;;;;4.80;99.90;;;;;;6766789;87;20517;-78
2024/01/06 14:13:37;;;;;;;;;;;4.80;99.90;;;;;;6769884;87;20092;-80
2024/01/06 14:23:37;;;;;;;;;;;4.70;99.90;;;;;;6761366;87;20638;-77
2024/01/06 14:33:37;;;;;;;;;;;4.70;99.90;;;;;;6765052;87;20108;-80
2024/01/06 14:43:38;;;;;;;;;;;4.50;99.90;;;;;;6774983;87;20531;-80
2024/01/06 14:53:38;;;;;;;;;;;4.40;99.90;;;;;;6757082;87;20096;-79
2024/01/06 15:03:39;;;;;;;;;;;4.40;99.90;;;;;;6766908;87;20904;-79
2024/01/06 15:13:39;;;;;;;;;;;4.30;99.90;;;;;;6766738;87;20057;-79
2024/01/06 15:23:40;;;;;;;;;;;4.20;99.90;;;;;;6763292;87;20076;-79
2024/01/06 15:33:42;;;;;;;;;;;4.10;99.90;;;;;;6761630;87;20057;-79
2024/01/06 15:43:42;;;;;;;;;;;4.00;99.90;;;;;;6763880;76;20089;-75
2024/01/06 15:53:43;;;;;;;;;;;3.90;99.90;;;;;;6744177;87;20063;-76
2024/01/06 16:03:43;;;;;;;;;;;3.90;99.90;;;;;;6742197;88;20090;-76
2024/01/06 16:13:43;;;;;;;;;;;3.80;99.90;;;;;;6744251;88;20068;-75
2024/01/06 16:23:44;;;;;;;;;;;3.80;99.90;;;;;;6741383;88;20062;-75
2024/01/06 16:33:44;;;;;;;;;;;3.70;99.90;;;;;;6737302;88;20251;-76
2024/01/06 16:43:45;;;;;;;;;;;3.60;99.90;;;;;;6739362;88;20149;-76
2024/01/06 16:53:46;;;;;;;;;;;3.60;99.90;;;;;;6744484;88;20235;-76
2024/01/06 17:03:47;;;;;;;;;;;3.50;99.90;;;;;;6734740;88;20061;-77
2024/01/06 17:13:48;;;;;;;;;;;3.40;99.90;;;;;;6740317;88;20083;-76
2024/01/06 17:23:50;;;;;;;;;;;3.20;99.90;;;;;;6739945;88;20229;-77
2024/01/06 17:33:51;;;;;;;;;;;3.20;99.90;;;;;;6740350;88;20575;-78
2024/01/06 17:43:55;;;;;;;;;;;3.10;99.90;;;;;;6739106;88;20220;-78
2024/01/06 17:53:55;;;;;;;;;;;3.10;99.90;;;;;;6734175;88;20087;-76
2024/01/06 18:03:56;;;;;;;;;;;3.00;99.90;;;;;;6732031;88;20066;-76
2024/01/06 18:13:56;;;;;;;;;;;3.00;99.90;;;;;;6746066;88;20193;-77
2024/01/06 18:23:56;;;;;;;;;;;3.20;99.90;;;;;;6729145;88;20091;-76
2024/01/06 18:33:57;;;;;;;;;;;3.00;99.90;;;;;;6725580;88;20086;-75
2024/01/06 18:43:57;;;;;;;;;;;3.00;99.90;;;;;;6728349;88;20141;-75
2024/01/06 18:53:58;;;;;;;;;;;2.90;99.90;;;;;;6726339;87;20617;-74
2024/01/06 19:03:58;;;;;;;;;;;2.80;99.90;;;;;;6727841;87;20054;-75
2024/01/06 19:13:59;;;;;;;;;;;2.80;99.90;;;;;;6731028;88;20055;-75
2024/01/06 19:24:00;;;;;;;;;;;2.70;99.90;;;;;;6731401;88;20147;-75
2024/01/06 19:34:01;;;;;;;;;;;2.70;99.90;;;;;;6726875;87;20509;-75
2024/01/06 19:44:03;;;;;;;;;;;2.70;99.90;;;;;;6729408;88;20547;-74
2024/01/06 19:54:03;;;;;;;;;;;2.70;99.90;;;;;;6737625;87;20611;-75
2024/01/06 20:04:04;;;;;;;;;;;2.60;99.90;;;;;;6731460;88;20071;-74
2024/01/06 20:14:04;;;;;;;;;;;2.50;99.90;;;;;;6735375;88;20060;-75
2024/01/06 20:24:05;;;;;;;;;;;2.40;99.90;;;;;;6730631;87;20102;-74
2024/01/06 20:34:05;;;;;;;;;;;2.40;99.90;;;;;;6728707;88;20121;-75
2024/01/06 20:44:06;;;;;;;;;;;2.40;99.90;;;;;;6728372;88;20082;-75
2024/01/06 20:54:06;;;;;;;;;;;2.50;99.90;;;;;;6729246;88;20080;-74
2024/01/06 21:04:07;;;;;;;;;;;2.50;99.90;;;;;;6732922;88;20047;-75
2024/01/06 21:14:08;;;;;;;;;;;2.50;99.90;;;;;;6732511;88;20549;-75
2024/01/06 21:24:08;;;;;;;;;;;2.50;99.90;;;;;;6738401;88;20479;-76
2024/01/06 21:34:09;;;;;;;;;;;2.50;99.90;;;;;;6739166;88;20058;-76
2024/01/06 21:44:09;;;;;;;;;;;2.50;99.90;;;;;;6761272;76;20457;-74
2024/01/06 21:54:10;;;;;;;;;;;2.50;99.90;;;;;;6738654;88;20123;-74
2024/01/06 22:04:11;;;;;;;;;;;2.50;99.90;;;;;;6741464;88;20549;-76
2024/01/06 22:14:13;;;;;;;;;;;2.40;99.90;;;;;;6740588;88;20071;-75
2024/01/06 22:24:13;;;;;;;;;;;2.40;99.90;;;;;;6738867;88;20076;-73
2024/01/06 22:34:14;;;;;;;;;;;2.40;99.90;;;;;;6739910;87;20477;-74
2024/01/06 22:44:15;;;;;;;;;;;2.50;99.90;;;;;;6743348;87;20065;-73
2024/01/06 22:54:15;;;;;;;;;;;2.50;99.90;;;;;;6740330;88;20055;-74
2024/01/06 23:04:15;;;;;;;;;;;2.50;99.90;;;;;;6741204;87;20077;-74
2024/01/06 23:14:16;;;;;;;;;;;2.60;99.90;;;;;;6741112;88;20079;-73
2024/01/06 23:24:18;;;;;;;;;;;2.60;99.90;;;;;;6740441;87;20094;-74
2024/01/06 23:34:18;;;;;;;;;;;2.60;99.90;;;;;;6752830;88;20101;-75
2024/01/06 23:44:19;;;;;;;;;;;2.60;99.90;;;;;;6746765;88;20084;-74
2024/01/06 23:54:19;;;;;;;;;;;2.60;99.90;;;;;;6741701;88;20176;-74
